createdAt,value
2019-04-07T00:02:17.041Z,54.27
2019-04-07T00:07:24.189Z,56.20
2019-04-07T00:12:29.969Z,57.23
2019-04-07T00:17:35.155Z,58.43
2019-04-07T00:22:40.580Z,57.03
2019-04-07T00:27:45.798Z,58.13
2019-04-07T00:32:51.135Z,59.17
2019-04-07T00:37:58.626Z,58.50
2019-04-07T00:43:06.910Z,58.93
2019-04-07T00:48:13.088Z,58.20
2019-04-07T00:53:19.986Z,57.67
2019-04-07T00:58:24.887Z,57.30
2019-04-07T01:03:31.339Z,57.30
2019-04-07T01:08:36.402Z,57.73
2019-04-07T01:13:42.777Z,58.27
2019-04-07T01:18:48.109Z,58.80
2019-04-07T01:23:53.338Z,60.03
2019-04-07T01:28:58.178Z,59.53
2019-04-07T01:34:04.362Z,59.10
2019-04-07T01:39:11.963Z,61.57
2019-04-07T01:44:43.210Z,59.80
2019-04-07T01:50:10.004Z,61.53
2019-04-07T01:55:35.720Z,59.57
2019-04-07T02:00:48.936Z,60.33
2019-04-07T02:06:16.827Z,61.73
2019-04-07T02:11:50.464Z,62.07
2019-04-07T02:17:01.903Z,62.27
2019-04-07T02:22:23.837Z,60.73
2019-04-07T02:27:34.819Z,61.93
2019-04-07T02:32:58.839Z,60.77
2019-04-07T02:38:08.895Z,62.33
2019-04-07T02:43:26.221Z,63.33
2019-04-07T02:48:39.855Z,61.67
2019-04-07T02:54:22.781Z,62.13
2019-04-07T02:59:46.406Z,63.40
2019-04-07T03:05:04.167Z,65.20
2019-04-07T03:10:27.369Z,64.47
2019-04-07T03:15:50.529Z,64.17
2019-04-07T03:21:07.690Z,62.07
2019-04-07T03:26:48.966Z,62.73
2019-04-07T03:32:38.405Z,62.33
2019-04-07T03:37:53.137Z,65.70
2019-04-07T03:43:13.633Z,64.03
2019-04-07T03:48:28.353Z,64.27
2019-04-07T03:53:54.021Z,63.43
2019-04-07T03:59:05.764Z,61.83
2019-04-07T04:04:34.701Z,62.60
2019-04-07T04:09:45.489Z,63.63
2019-04-07T04:15:00.237Z,63.70
2019-04-07T04:20:07.057Z,63.43
2019-04-07T04:25:12.630Z,61.90
2019-04-07T04:30:18.860Z,63.93
2019-04-07T04:35:24.549Z,63.03
2019-04-07T04:40:30.299Z,63.17
2019-04-07T04:45:36.257Z,62.83
2019-04-07T04:50:42.039Z,63.73
2019-04-07T04:55:47.248Z,63.10
2019-04-07T05:00:52.468Z,63.53
2019-04-07T05:05:58.881Z,64.00
2019-04-07T05:11:04.375Z,61.77
2019-04-07T05:16:10.612Z,62.70
2019-04-07T05:21:16.475Z,64.30
2019-04-07T05:26:21.436Z,62.90
2019-04-07T05:31:27.177Z,63.03
2019-04-07T05:36:32.512Z,63.30
2019-04-07T05:41:37.351Z,61.33
2019-04-07T05:46:42.630Z,62.47
2019-04-07T05:51:48.240Z,60.97
2019-04-07T05:56:53.412Z,59.30
2019-04-07T06:02:02.507Z,59.87
2019-04-07T06:07:11.366Z,59.10
2019-04-07T06:12:19.330Z,59.57
2019-04-07T06:17:26.312Z,58.70
2019-04-07T06:22:35.001Z,58.50
2019-04-07T06:27:40.550Z,56.27
2019-04-07T06:32:46.231Z,54.77
2019-04-07T06:37:52.037Z,53.43
2019-04-07T06:42:57.873Z,54.30
2019-04-07T06:48:07.438Z,54.10
2019-04-07T06:53:29.049Z,54.00
2019-04-07T06:58:53.212Z,51.60
2019-04-07T07:04:26.579Z,52.60
2019-04-07T07:09:41.792Z,52.13
2019-04-07T07:15:04.695Z,50.63
2019-04-07T07:20:27.695Z,49.20
2019-04-07T07:25:32.214Z,51.70
2019-04-07T07:30:37.606Z,51.07
2019-04-07T07:35:46.891Z,49.55
2019-04-07T07:40:50.128Z,47.73
2019-04-07T07:45:55.591Z,49.63
2019-04-07T07:51:01.170Z,48.57
2019-04-07T07:56:11.550Z,52.13
2019-04-07T08:01:15.963Z,50.05
2019-04-07T08:06:22.649Z,48.15
2019-04-07T08:11:31.537Z,45.43
2019-04-07T08:16:37.290Z,43.60
2019-04-07T08:21:43.620Z,41.85
2019-04-07T08:26:48.845Z,42.62
2019-04-07T08:31:55.429Z,40.75
2019-04-07T08:37:02.805Z,41.02
2019-04-07T08:42:11.934Z,40.88
2019-04-07T08:47:20.707Z,40.90
2019-04-07T08:52:23.377Z,39.50
2019-04-07T08:57:30.538Z,40.48
2019-04-07T09:02:34.826Z,43.28
2019-04-07T09:07:40.058Z,40.67
2019-04-07T09:12:46.124Z,41.25
2019-04-07T09:17:57.851Z,41.28
2019-04-07T09:23:12.403Z,39.33
2019-04-07T09:28:33.177Z,39.15
2019-04-07T09:33:57.182Z,38.78
2019-04-07T09:39:31.442Z,39.60
2019-04-07T09:44:53.898Z,39.33
2019-04-07T09:50:19.645Z,40.70
2019-04-07T09:55:41.116Z,38.83
2019-04-07T10:01:00.226Z,37.20
2019-04-07T10:06:24.754Z,37.98
2019-04-07T10:11:49.539Z,37.65
2019-04-07T10:17:05.149Z,37.13
2019-04-07T10:22:38.460Z,35.52
2019-04-07T10:28:02.981Z,34.08
2019-04-07T10:33:20.301Z,35.88
2019-04-07T10:38:45.124Z,36.03
2019-04-07T10:43:55.999Z,33.15
2019-04-07T10:49:19.163Z,31.48
2019-04-07T10:54:35.999Z,30.05
2019-04-07T10:59:49.475Z,30.97
2019-04-07T11:05:14.111Z,30.00
2019-04-07T11:10:39.042Z,29.40
2019-04-07T11:16:05.033Z,32.73
2019-04-07T11:21:18.468Z,30.57
2019-04-07T11:26:51.770Z,31.12
2019-04-07T11:32:06.534Z,29.12
2019-04-07T11:37:29.249Z,27.50
2019-04-07T11:42:52.342Z,26.00
2019-04-07T11:48:20.967Z,24.85
2019-04-07T11:53:41.624Z,24.52
2019-04-07T11:58:59.189Z,21.90
2019-04-07T12:04:29.571Z,19.15
2019-04-07T12:09:52.650Z,17.65
2019-04-07T12:15:12.098Z,18.60
2019-04-07T12:20:33.840Z,18.57
2019-04-07T12:25:44.002Z,17.32
2019-04-07T12:31:07.545Z,18.02
2019-04-07T12:36:31.789Z,18.23
2019-04-07T12:41:58.081Z,16.73
2019-04-07T12:47:14.546Z,16.35
2019-04-07T12:52:38.021Z,15.98
2019-04-07T12:57:50.884Z,15.53
2019-04-07T13:03:18.163Z,14.90
2019-04-07T13:08:41.337Z,14.20
2019-04-07T13:14:08.094Z,13.60
2019-04-07T13:19:20.213Z,12.20
2019-04-07T13:24:39.052Z,13.93
2019-04-07T13:29:51.856Z,13.68
2019-04-07T13:35:22.480Z,14.80
2019-04-07T13:40:47.078Z,14.58
2019-04-07T13:46:28.515Z,14.85
2019-04-07T13:51:40.528Z,16.52
2019-04-07T13:57:03.391Z,17.02
2019-04-07T14:02:17.614Z,15.95
2019-04-07T14:07:41.635Z,15.10
2019-04-07T14:12:58.660Z,13.15
2019-04-07T14:18:14.421Z,12.28
2019-04-07T14:23:28.690Z,12.37
2019-04-07T14:28:41.158Z,12.25
2019-04-07T14:34:07.421Z,12.15
2019-04-07T14:39:27.207Z,12.33
2019-04-07T14:44:55.568Z,12.63
2019-04-07T14:50:09.863Z,12.53
2019-04-07T14:55:34.689Z,12.23
2019-04-07T15:01:19.092Z,12.93
2019-04-07T15:06:31.187Z,13.43
2019-04-07T15:11:58.777Z,11.95
2019-04-07T15:17:04.712Z,12.65
2019-04-07T15:22:09.705Z,12.00
2019-04-07T15:27:15.468Z,13.98
2019-04-07T15:32:24.371Z,12.68
2019-04-07T15:37:28.140Z,13.35
2019-04-07T15:42:40.340Z,13.20
2019-04-07T15:47:40.481Z,12.60
2019-04-07T15:52:46.979Z,11.95
2019-04-07T15:57:55.578Z,13.15
2019-04-07T16:03:00.119Z,13.38
2019-04-07T16:08:06.858Z,13.83
2019-04-07T16:13:12.873Z,14.03
2019-04-07T16:18:18.964Z,13.98
2019-04-07T16:23:26.200Z,13.70
2019-04-07T16:28:31.917Z,13.93
2019-04-07T16:33:38.790Z,13.28
2019-04-07T16:38:47.068Z,13.13
2019-04-07T16:43:52.724Z,13.18
2019-04-07T16:48:58.724Z,14.78
2019-04-07T16:54:08.207Z,14.38
2019-04-07T16:59:11.022Z,13.35
2019-04-07T17:04:16.996Z,13.50
2019-04-07T17:09:25.902Z,13.55
2019-04-07T17:14:33.685Z,13.53
2019-04-07T17:19:37.289Z,14.07
2019-04-07T17:24:42.778Z,13.95
2019-04-07T17:29:53.283Z,13.15
2019-04-07T17:34:56.371Z,13.90
2019-04-07T17:40:13.191Z,13.60
2019-04-07T17:45:35.393Z,13.45
2019-04-07T17:51:04.568Z,13.72
2019-04-07T17:56:29.814Z,12.55
2019-04-07T18:01:56.403Z,22.50
2019-04-07T18:07:12.035Z,13.35
2019-04-07T18:12:49.656Z,12.78
2019-04-07T18:18:18.785Z,13.35
2019-04-07T18:23:34.645Z,13.13
2019-04-07T18:28:58.525Z,13.88
2019-04-07T18:34:14.260Z,14.03
2019-04-07T18:39:36.950Z,13.25
2019-04-07T18:45:12.186Z,13.72
2019-04-07T18:50:45.463Z,13.90
2019-04-07T18:56:09.841Z,13.43
2019-04-07T19:01:25.434Z,14.33
2019-04-07T19:06:52.706Z,13.22
2019-04-07T19:12:20.750Z,13.53
2019-04-07T19:17:46.743Z,14.23
2019-04-07T19:23:11.333Z,13.22
2019-04-07T19:28:28.371Z,14.30
2019-04-07T19:34:02.547Z,14.85
2019-04-07T19:39:29.662Z,14.50
2019-04-07T19:44:51.043Z,13.93
2019-04-07T19:50:10.809Z,13.85
2019-04-07T19:55:34.631Z,13.93
2019-04-07T20:01:00.141Z,14.38
2019-04-07T20:06:41.985Z,14.47
2019-04-07T20:12:20.649Z,14.95
2019-04-07T20:17:50.557Z,14.13
2019-04-07T20:23:18.376Z,13.55
2019-04-07T20:28:34.225Z,12.80
2019-04-07T20:34:03.774Z,12.85
2019-04-07T20:39:40.045Z,13.38
2019-04-07T20:45:22.719Z,13.43
2019-04-07T20:50:50.105Z,13.40
2019-04-07T20:56:31.441Z,12.63
2019-04-07T21:02:05.890Z,12.95
2019-04-07T21:07:18.790Z,12.63
2019-04-07T21:12:37.877Z,12.68
2019-04-07T21:17:52.395Z,12.50
2019-04-07T21:23:25.831Z,12.75
2019-04-07T21:28:52.908Z,12.33
2019-04-07T21:34:32.380Z,12.58
2019-04-07T21:39:54.336Z,11.97
2019-04-07T21:45:10.975Z,12.13
2019-04-07T21:50:41.125Z,12.28
2019-04-07T21:55:56.004Z,12.05
2019-04-07T22:01:16.658Z,12.30
2019-04-07T22:06:46.641Z,11.80
2019-04-07T22:11:55.854Z,11.20
2019-04-07T22:17:02.834Z,11.60
2019-04-07T22:22:08.787Z,11.55
2019-04-07T22:27:17.536Z,11.35
2019-04-07T22:32:23.048Z,11.35
2019-04-07T22:37:28.222Z,11.95
2019-04-07T22:42:33.482Z,11.22
2019-04-07T22:47:40.579Z,11.43
2019-04-07T22:52:49.164Z,11.60
2019-04-07T22:57:52.611Z,11.73
2019-04-07T23:03:00.346Z,11.90
2019-04-07T23:08:05.639Z,11.85
2019-04-07T23:13:11.742Z,11.75
2019-04-07T23:18:17.813Z,12.28
2019-04-07T23:23:23.931Z,12.15
2019-04-07T23:28:28.995Z,12.18
2019-04-07T23:33:34.762Z,12.53
2019-04-07T23:38:41.082Z,13.05
2019-04-07T23:43:45.958Z,12.98
2019-04-07T23:48:52.376Z,13.20
2019-04-07T23:54:14.339Z,13.43
2019-04-07T23:59:21.267Z,12.37
